CheckWX is a tool to help pilots better visualize weather data.  It is not intended as a substitute for an official pre-flight weather briefing.

17:19:00 UTC

PAMD METAR
Middleton Island Airport
Middleton Island, Alaska, USA
Current

28 mins ago

PAMD 051651Z AUTO 25012G18KT 7SM CLR 04/03 A2977 RMK AO2 SLP067 T00440033
Observed
Apr-5 @ 16:51 UTC
Wind
  • 250° at 12 KTS
  • Gusting to 18 KTS
Visibility
Flight Rules
VFR
Cloud Levels
  • Clear skies
Temperature
C / 39°F
Dewpoint
C / 37°F
Humidity
93%
Altimeter
29.77" Hg
Pressure
1008.12 hPa
Previous

1 hour ago

PAMD 051551Z AUTO 17003KT 6SM BR CLR 04/03 A2978 RMK AO2 SLP072 T00390033
Observed
Apr-5 @ 15:51 UTC
Wind
  • 170° at 3 KTS
Visibility
Flight Rules
VFR
Conditions
Mist
Cloud Levels
  • Clear skies
Temperature
C / 39°F
Dewpoint
C / 37°F
Humidity
93%
Altimeter
29.78" Hg
Pressure
1008.42 hPa
Previous

2 hours ago

PAMD 051451Z AUTO 14006KT 5SM BR FEW090 04/03 A2980 RMK AO2 SLP078 T00390033 58019
Observed
Apr-5 @ 14:51 UTC
Wind
  • 140° at 6 KTS
Visibility
Flight Rules
MVFR
Conditions
Mist
Cloud Levels
  • Few at 9,000' AGL
Temperature
C / 39°F
Dewpoint
C / 37°F
Humidity
93%
Altimeter
29.8" Hg
Pressure
1009.12 hPa